sensor_id;sensor_type;location;lat;lon;timestamp;P1;durP1;ratioP1;P2;durP2;ratioP2
41923;SDS011;27613;48.116;11.656;2023-09-08T00:00:49;4.35;;;3.45;;
41923;SDS011;27613;48.116;11.656;2023-09-08T00:03:15;4.90;;;3.70;;
41923;SDS011;27613;48.116;11.656;2023-09-08T00:05:41;4.47;;;3.50;;
41923;SDS011;27613;48.116;11.656;2023-09-08T00:08:07;5.20;;;4.10;;
41923;SDS011;27613;48.116;11.656;2023-09-08T00:10:32;4.60;;;3.47;;
41923;SDS011;27613;48.116;11.656;2023-09-08T00:12:58;5.10;;;3.63;;
41923;SDS011;27613;48.116;11.656;2023-09-08T00:15:23;4.57;;;3.40;;
41923;SDS011;27613;48.116;11.656;2023-09-08T00:17:49;4.75;;;3.50;;
41923;SDS011;27613;48.116;11.656;2023-09-08T00:20:14;5.10;;;3.55;;
41923;SDS011;27613;48.116;11.656;2023-09-08T00:22:40;5.25;;;3.72;;
41923;SDS011;27613;48.116;11.656;2023-09-08T00:25:05;6.18;;;3.80;;
41923;SDS011;27613;48.116;11.656;2023-09-08T00:27:31;8.55;;;4.00;;
41923;SDS011;27613;48.116;11.656;2023-09-08T00:29:57;4.55;;;3.75;;
41923;SDS011;27613;48.116;11.656;2023-09-08T00:32:23;6.45;;;3.53;;
41923;SDS011;27613;48.116;11.656;2023-09-08T00:34:49;5.28;;;3.97;;
41923;SDS011;27613;48.116;11.656;2023-09-08T00:37:14;5.35;;;3.45;;
41923;SDS011;27613;48.116;11.656;2023-09-08T00:39:40;6.20;;;3.95;;
41923;SDS011;27613;48.116;11.656;2023-09-08T00:42:06;5.90;;;4.15;;
41923;SDS011;27613;48.116;11.656;2023-09-08T00:44:34;4.45;;;3.53;;
41923;SDS011;27613;48.116;11.656;2023-09-08T00:47:00;4.50;;;3.60;;
41923;SDS011;27613;48.116;11.656;2023-09-08T00:49:25;6.43;;;4.00;;
41923;SDS011;27613;48.116;11.656;2023-09-08T00:51:51;5.10;;;3.97;;
41923;SDS011;27613;48.116;11.656;2023-09-08T00:54:17;5.15;;;4.15;;
41923;SDS011;27613;48.116;11.656;2023-09-08T00:56:43;5.00;;;4.00;;
41923;SDS011;27613;48.116;11.656;2023-09-08T00:59:10;5.45;;;3.92;;
41923;SDS011;27613;48.116;11.656;2023-09-08T01:01:36;6.03;;;4.07;;
41923;SDS011;27613;48.116;11.656;2023-09-08T01:04:02;8.43;;;4.03;;
41923;SDS011;27613;48.116;11.656;2023-09-08T01:06:27;5.93;;;3.97;;
41923;SDS011;27613;48.116;11.656;2023-09-08T01:08:54;8.75;;;3.28;;
41923;SDS011;27613;48.116;11.656;2023-09-08T01:11:20;5.30;;;4.00;;
41923;SDS011;27613;48.116;11.656;2023-09-08T01:13:46;5.47;;;4.00;;
41923;SDS011;27613;48.116;11.656;2023-09-08T01:16:12;7.47;;;3.95;;
41923;SDS011;27613;48.116;11.656;2023-09-08T01:18:37;5.25;;;3.65;;
41923;SDS011;27613;48.116;11.656;2023-09-08T01:26:56;5.43;;;3.85;;
41923;SDS011;27613;48.116;11.656;2023-09-08T01:29:22;6.13;;;4.07;;
41923;SDS011;27613;48.116;11.656;2023-09-08T01:31:49;5.35;;;3.78;;
41923;SDS011;27613;48.116;11.656;2023-09-08T01:34:15;5.55;;;3.85;;
41923;SDS011;27613;48.116;11.656;2023-09-08T01:36:42;4.65;;;3.40;;
41923;SDS011;27613;48.116;11.656;2023-09-08T01:39:07;5.78;;;3.45;;
41923;SDS011;27613;48.116;11.656;2023-09-08T01:41:33;5.75;;;3.75;;
41923;SDS011;27613;48.116;11.656;2023-09-08T01:43:59;4.38;;;3.50;;
41923;SDS011;27613;48.116;11.656;2023-09-08T01:46:25;4.60;;;3.60;;
41923;SDS011;27613;48.116;11.656;2023-09-08T01:48:50;5.40;;;3.70;;
41923;SDS011;27613;48.116;11.656;2023-09-08T01:51:16;5.05;;;4.05;;
41923;SDS011;27613;48.116;11.656;2023-09-08T01:53:41;4.57;;;3.70;;
41923;SDS011;27613;48.116;11.656;2023-09-08T01:56:07;5.30;;;3.55;;
41923;SDS011;27613;48.116;11.656;2023-09-08T01:58:32;5.25;;;3.83;;
41923;SDS011;27613;48.116;11.656;2023-09-08T02:00:59;4.50;;;3.55;;
41923;SDS011;27613;48.116;11.656;2023-09-08T02:03:30;5.50;;;4.03;;
41923;SDS011;27613;48.116;11.656;2023-09-08T02:05:59;4.97;;;3.90;;
41923;SDS011;27613;48.116;11.656;2023-09-08T02:08:24;4.28;;;3.35;;
41923;SDS011;27613;48.116;11.656;2023-09-08T02:10:50;5.03;;;3.30;;
41923;SDS011;27613;48.116;11.656;2023-09-08T02:13:15;4.43;;;3.40;;
41923;SDS011;27613;48.116;11.656;2023-09-08T02:15:41;6.03;;;4.00;;
41923;SDS011;27613;48.116;11.656;2023-09-08T02:18:06;9.15;;;3.80;;
41923;SDS011;27613;48.116;11.656;2023-09-08T02:20:32;5.72;;;3.75;;
41923;SDS011;27613;48.116;11.656;2023-09-08T02:23:03;5.20;;;3.38;;
41923;SDS011;27613;48.116;11.656;2023-09-08T02:25:30;4.55;;;3.45;;
41923;SDS011;27613;48.116;11.656;2023-09-08T02:27:55;5.68;;;3.75;;
41923;SDS011;27613;48.116;11.656;2023-09-08T02:30:21;5.93;;;3.65;;
41923;SDS011;27613;48.116;11.656;2023-09-08T02:32:46;4.95;;;3.55;;
41923;SDS011;27613;48.116;11.656;2023-09-08T02:35:12;5.35;;;3.60;;
41923;SDS011;27613;48.116;11.656;2023-09-08T02:37:37;5.50;;;3.70;;
41923;SDS011;27613;48.116;11.656;2023-09-08T02:40:03;4.82;;;3.70;;
41923;SDS011;27613;48.116;11.656;2023-09-08T02:42:30;5.43;;;3.40;;
41923;SDS011;27613;48.116;11.656;2023-09-08T02:44:56;5.70;;;3.80;;
41923;SDS011;27613;48.116;11.656;2023-09-08T02:47:21;5.05;;;3.72;;
41923;SDS011;27613;48.116;11.656;2023-09-08T02:49:47;6.55;;;4.20;;
41923;SDS011;27613;48.116;11.656;2023-09-08T02:52:12;6.10;;;4.40;;
41923;SDS011;27613;48.116;11.656;2023-09-08T02:54:38;10.10;;;4.03;;
41923;SDS011;27613;48.116;11.656;2023-09-08T02:57:04;4.15;;;3.13;;
41923;SDS011;27613;48.116;11.656;2023-09-08T02:59:30;5.72;;;3.97;;
41923;SDS011;27613;48.116;11.656;2023-09-08T03:01:55;6.70;;;3.75;;
41923;SDS011;27613;48.116;11.656;2023-09-08T03:04:21;4.50;;;3.47;;
41923;SDS011;27613;48.116;11.656;2023-09-08T03:06:46;5.22;;;3.72;;
41923;SDS011;27613;48.116;11.656;2023-09-08T03:09:12;6.25;;;3.88;;
41923;SDS011;27613;48.116;11.656;2023-09-08T03:11:37;6.60;;;4.00;;
41923;SDS011;27613;48.116;11.656;2023-09-08T03:14:03;4.38;;;3.17;;
41923;SDS011;27613;48.116;11.656;2023-09-08T03:16:28;7.55;;;3.67;;
41923;SDS011;27613;48.116;11.656;2023-09-08T03:18:53;9.30;;;3.47;;
41923;SDS011;27613;48.116;11.656;2023-09-08T03:21:19;5.25;;;3.83;;
41923;SDS011;27613;48.116;11.656;2023-09-08T03:23:45;5.63;;;3.70;;
41923;SDS011;27613;48.116;11.656;2023-09-08T03:26:10;6.55;;;4.13;;
41923;SDS011;27613;48.116;11.656;2023-09-08T03:28:37;6.97;;;4.10;;
41923;SDS011;27613;48.116;11.656;2023-09-08T03:31:03;5.90;;;3.63;;
41923;SDS011;27613;48.116;11.656;2023-09-08T03:33:29;6.47;;;3.80;;
41923;SDS011;27613;48.116;11.656;2023-09-08T03:35:55;5.53;;;3.97;;
41923;SDS011;27613;48.116;11.656;2023-09-08T03:38:21;5.35;;;3.60;;
41923;SDS011;27613;48.116;11.656;2023-09-08T03:40:47;4.43;;;3.53;;
41923;SDS011;27613;48.116;11.656;2023-09-08T03:43:13;5.57;;;4.00;;
41923;SDS011;27613;48.116;11.656;2023-09-08T03:45:38;5.55;;;3.58;;
41923;SDS011;27613;48.116;11.656;2023-09-08T03:48:04;4.93;;;3.30;;
41923;SDS011;27613;48.116;11.656;2023-09-08T03:50:30;4.32;;;3.28;;
41923;SDS011;27613;48.116;11.656;2023-09-08T03:52:55;4.53;;;3.30;;
41923;SDS011;27613;48.116;11.656;2023-09-08T03:55:21;5.28;;;3.58;;
41923;SDS011;27613;48.116;11.656;2023-09-08T03:57:47;7.55;;;3.72;;
41923;SDS011;27613;48.116;11.656;2023-09-08T04:00:13;5.32;;;3.92;;
41923;SDS011;27613;48.116;11.656;2023-09-08T04:02:44;5.47;;;3.42;;
41923;SDS011;27613;48.116;11.656;2023-09-08T04:05:10;5.72;;;3.63;;
41923;SDS011;27613;48.116;11.656;2023-09-08T04:07:35;4.50;;;3.30;;
41923;SDS011;27613;48.116;11.656;2023-09-08T04:10:01;4.65;;;3.70;;
41923;SDS011;27613;48.116;11.656;2023-09-08T04:12:28;4.38;;;3.50;;
41923;SDS011;27613;48.116;11.656;2023-09-08T04:14:53;4.70;;;3.53;;
41923;SDS011;27613;48.116;11.656;2023-09-08T04:17:19;6.55;;;3.83;;
41923;SDS011;27613;48.116;11.656;2023-09-08T04:19:44;4.85;;;3.50;;
41923;SDS011;27613;48.116;11.656;2023-09-08T04:22:10;4.50;;;3.50;;
41923;SDS011;27613;48.116;11.656;2023-09-08T04:24:36;5.85;;;3.78;;
41923;SDS011;27613;48.116;11.656;2023-09-08T04:27:02;5.45;;;3.63;;
41923;SDS011;27613;48.116;11.656;2023-09-08T04:29:28;4.88;;;3.38;;
41923;SDS011;27613;48.116;11.656;2023-09-08T04:31:54;5.70;;;3.92;;
41923;SDS011;27613;48.116;11.656;2023-09-08T04:34:19;4.93;;;3.35;;
41923;SDS011;27613;48.116;11.656;2023-09-08T04:36:45;4.97;;;3.60;;
41923;SDS011;27613;48.116;11.656;2023-09-08T04:39:10;4.13;;;3.13;;
41923;SDS011;27613;48.116;11.656;2023-09-08T04:41:36;4.45;;;3.67;;
41923;SDS011;27613;48.116;11.656;2023-09-08T04:44:02;5.90;;;3.97;;
41923;SDS011;27613;48.116;11.656;2023-09-08T04:46:28;5.32;;;4.00;;
41923;SDS011;27613;48.116;11.656;2023-09-08T04:48:53;5.43;;;3.72;;
41923;SDS011;27613;48.116;11.656;2023-09-08T04:51:19;4.28;;;3.42;;
41923;SDS011;27613;48.116;11.656;2023-09-08T04:53:44;5.78;;;3.70;;
41923;SDS011;27613;48.116;11.656;2023-09-08T04:56:11;5.35;;;3.80;;
41923;SDS011;27613;48.116;11.656;2023-09-08T04:58:38;6.07;;;3.47;;
41923;SDS011;27613;48.116;11.656;2023-09-08T05:01:04;5.88;;;3.72;;
41923;SDS011;27613;48.116;11.656;2023-09-08T05:03:30;7.25;;;3.70;;
41923;SDS011;27613;48.116;11.656;2023-09-08T05:05:56;5.07;;;4.07;;
41923;SDS011;27613;48.116;11.656;2023-09-08T05:08:21;4.28;;;3.40;;
41923;SDS011;27613;48.116;11.656;2023-09-08T05:10:47;4.68;;;3.83;;
41923;SDS011;27613;48.116;11.656;2023-09-08T05:13:12;5.30;;;3.72;;
41923;SDS011;27613;48.116;11.656;2023-09-08T05:15:38;5.32;;;4.03;;
41923;SDS011;27613;48.116;11.656;2023-09-08T05:18:07;5.05;;;3.38;;
41923;SDS011;27613;48.116;11.656;2023-09-08T05:20:32;5.15;;;3.80;;
41923;SDS011;27613;48.116;11.656;2023-09-08T05:22:58;5.50;;;4.20;;
41923;SDS011;27613;48.116;11.656;2023-09-08T05:25:24;5.78;;;3.75;;
41923;SDS011;27613;48.116;11.656;2023-09-08T05:27:49;7.00;;;3.83;;
41923;SDS011;27613;48.116;11.656;2023-09-08T05:30:15;6.38;;;3.88;;
41923;SDS011;27613;48.116;11.656;2023-09-08T05:32:40;8.52;;;4.15;;
41923;SDS011;27613;48.116;11.656;2023-09-08T05:35:06;4.72;;;3.60;;
41923;SDS011;27613;48.116;11.656;2023-09-08T05:37:31;4.93;;;3.55;;
41923;SDS011;27613;48.116;11.656;2023-09-08T05:39:57;6.85;;;3.63;;
41923;SDS011;27613;48.116;11.656;2023-09-08T05:42:22;5.53;;;4.13;;
41923;SDS011;27613;48.116;11.656;2023-09-08T05:44:48;4.82;;;3.67;;
41923;SDS011;27613;48.116;11.656;2023-09-08T05:47:14;6.65;;;4.50;;
41923;SDS011;27613;48.116;11.656;2023-09-08T05:49:39;6.47;;;4.13;;
41923;SDS011;27613;48.116;11.656;2023-09-08T05:52:05;6.32;;;4.22;;
41923;SDS011;27613;48.116;11.656;2023-09-08T05:54:30;6.00;;;4.32;;
41923;SDS011;27613;48.116;11.656;2023-09-08T05:56:56;6.30;;;4.10;;
41923;SDS011;27613;48.116;11.656;2023-09-08T05:59:21;5.63;;;4.22;;
41923;SDS011;27613;48.116;11.656;2023-09-08T06:01:47;5.18;;;4.03;;
41923;SDS011;27613;48.116;11.656;2023-09-08T06:04:12;5.70;;;4.07;;
41923;SDS011;27613;48.116;11.656;2023-09-08T06:06:38;5.35;;;4.13;;
41923;SDS011;27613;48.116;11.656;2023-09-08T06:09:04;9.73;;;4.30;;
41923;SDS011;27613;48.116;11.656;2023-09-08T06:11:31;5.85;;;3.85;;
41923;SDS011;27613;48.116;11.656;2023-09-08T06:13:56;5.55;;;3.88;;
41923;SDS011;27613;48.116;11.656;2023-09-08T06:16:24;6.03;;;4.07;;
41923;SDS011;27613;48.116;11.656;2023-09-08T06:18:50;5.75;;;4.03;;
41923;SDS011;27613;48.116;11.656;2023-09-08T06:21:15;6.57;;;4.70;;
41923;SDS011;27613;48.116;11.656;2023-09-08T06:23:41;7.05;;;4.28;;
41923;SDS011;27613;48.116;11.656;2023-09-08T06:26:06;5.88;;;4.43;;
41923;SDS011;27613;48.116;11.656;2023-09-08T06:28:32;7.97;;;5.13;;
41923;SDS011;27613;48.116;11.656;2023-09-08T06:30:57;6.00;;;4.55;;
41923;SDS011;27613;48.116;11.656;2023-09-08T06:33:24;6.97;;;4.68;;
41923;SDS011;27613;48.116;11.656;2023-09-08T06:35:49;8.23;;;5.20;;
41923;SDS011;27613;48.116;11.656;2023-09-08T06:38:15;6.00;;;4.82;;
41923;SDS011;27613;48.116;11.656;2023-09-08T06:40:41;5.78;;;4.60;;
41923;SDS011;27613;48.116;11.656;2023-09-08T06:43:06;7.03;;;4.65;;
41923;SDS011;27613;48.116;11.656;2023-09-08T06:45:32;6.65;;;4.88;;
41923;SDS011;27613;48.116;11.656;2023-09-08T06:47:57;5.85;;;4.53;;
41923;SDS011;27613;48.116;11.656;2023-09-08T06:50:24;5.82;;;4.85;;
41923;SDS011;27613;48.116;11.656;2023-09-08T06:52:51;4.97;;;4.43;;
41923;SDS011;27613;48.116;11.656;2023-09-08T06:55:17;5.63;;;4.80;;
41923;SDS011;27613;48.116;11.656;2023-09-08T06:57:44;11.30;;;5.72;;
41923;SDS011;27613;48.116;11.656;2023-09-08T07:00:10;6.68;;;5.05;;
41923;SDS011;27613;48.116;11.656;2023-09-08T07:02:37;5.47;;;4.57;;
41923;SDS011;27613;48.116;11.656;2023-09-08T07:05:03;6.95;;;4.70;;
41923;SDS011;27613;48.116;11.656;2023-09-08T07:07:36;5.97;;;4.38;;
41923;SDS011;27613;48.116;11.656;2023-09-08T07:10:05;8.35;;;5.07;;
41923;SDS011;27613;48.116;11.656;2023-09-08T07:12:31;5.47;;;4.63;;
41923;SDS011;27613;48.116;11.656;2023-09-08T07:14:56;5.10;;;4.57;;
41923;SDS011;27613;48.116;11.656;2023-09-08T07:17:22;5.75;;;4.55;;
41923;SDS011;27613;48.116;11.656;2023-09-08T07:19:48;5.38;;;4.32;;
41923;SDS011;27613;48.116;11.656;2023-09-08T07:22:14;6.57;;;4.63;;
41923;SDS011;27613;48.116;11.656;2023-09-08T07:24:40;5.47;;;4.78;;
41923;SDS011;27613;48.116;11.656;2023-09-08T07:27:06;6.75;;;5.05;;
41923;SDS011;27613;48.116;11.656;2023-09-08T07:29:31;6.35;;;4.60;;
41923;SDS011;27613;48.116;11.656;2023-09-08T07:31:57;7.20;;;5.13;;
41923;SDS011;27613;48.116;11.656;2023-09-08T07:34:23;6.10;;;4.40;;
41923;SDS011;27613;48.116;11.656;2023-09-08T07:36:48;9.00;;;5.38;;
41923;SDS011;27613;48.116;11.656;2023-09-08T07:39:14;6.68;;;4.88;;
41923;SDS011;27613;48.116;11.656;2023-09-08T07:41:39;4.78;;;3.95;;
41923;SDS011;27613;48.116;11.656;2023-09-08T07:44:05;6.85;;;4.53;;
41923;SDS011;27613;48.116;11.656;2023-09-08T07:46:31;6.18;;;4.72;;
41923;SDS011;27613;48.116;11.656;2023-09-08T07:49:00;6.60;;;4.82;;
41923;SDS011;27613;48.116;11.656;2023-09-08T07:51:26;5.75;;;4.15;;
41923;SDS011;27613;48.116;11.656;2023-09-08T07:53:55;5.22;;;4.55;;
41923;SDS011;27613;48.116;11.656;2023-09-08T07:56:21;8.70;;;5.07;;
41923;SDS011;27613;48.116;11.656;2023-09-08T07:58:46;5.70;;;4.47;;
41923;SDS011;27613;48.116;11.656;2023-09-08T08:01:12;6.65;;;5.03;;
41923;SDS011;27613;48.116;11.656;2023-09-08T08:03:38;5.45;;;4.20;;
41923;SDS011;27613;48.116;11.656;2023-09-08T08:06:04;6.25;;;4.57;;
41923;SDS011;27613;48.116;11.656;2023-09-08T08:08:30;5.43;;;4.60;;
41923;SDS011;27613;48.116;11.656;2023-09-08T08:10:56;8.02;;;5.00;;
41923;SDS011;27613;48.116;11.656;2023-09-08T08:13:22;5.82;;;4.63;;
41923;SDS011;27613;48.116;11.656;2023-09-08T08:15:48;5.22;;;4.18;;
41923;SDS011;27613;48.116;11.656;2023-09-08T08:18:14;6.82;;;4.47;;
41923;SDS011;27613;48.116;11.656;2023-09-08T08:20:40;5.97;;;4.30;;
41923;SDS011;27613;48.116;11.656;2023-09-08T08:23:06;4.22;;;3.63;;
41923;SDS011;27613;48.116;11.656;2023-09-08T08:25:32;4.63;;;4.03;;
41923;SDS011;27613;48.116;11.656;2023-09-08T08:27:58;4.78;;;3.83;;
41923;SDS011;27613;48.116;11.656;2023-09-08T08:30:25;5.03;;;4.07;;
41923;SDS011;27613;48.116;11.656;2023-09-08T08:32:51;5.70;;;4.22;;
41923;SDS011;27613;48.116;11.656;2023-09-08T08:35:18;9.57;;;3.38;;
41923;SDS011;27613;48.116;11.656;2023-09-08T08:37:44;5.82;;;3.67;;
41923;SDS011;27613;48.116;11.656;2023-09-08T08:40:10;4.47;;;3.22;;
41923;SDS011;27613;48.116;11.656;2023-09-08T08:42:37;4.78;;;3.45;;
41923;SDS011;27613;48.116;11.656;2023-09-08T08:45:03;4.75;;;3.10;;
41923;SDS011;27613;48.116;11.656;2023-09-08T08:47:29;3.75;;;2.83;;
41923;SDS011;27613;48.116;11.656;2023-09-08T08:49:55;3.90;;;3.10;;
41923;SDS011;27613;48.116;11.656;2023-09-08T08:52:25;3.65;;;2.50;;
41923;SDS011;27613;48.116;11.656;2023-09-08T08:54:51;3.90;;;2.60;;
41923;SDS011;27613;48.116;11.656;2023-09-08T08:57:17;3.30;;;2.50;;
41923;SDS011;27613;48.116;11.656;2023-09-08T08:59:43;3.90;;;2.75;;
41923;SDS011;27613;48.116;11.656;2023-09-08T09:02:11;4.22;;;2.30;;
41923;SDS011;27613;48.116;11.656;2023-09-08T09:04:37;3.85;;;2.70;;
41923;SDS011;27613;48.116;11.656;2023-09-08T09:07:03;4.70;;;2.60;;
41923;SDS011;27613;48.116;11.656;2023-09-08T09:09:31;4.20;;;2.42;;
41923;SDS011;27613;48.116;11.656;2023-09-08T09:11:56;3.00;;;2.20;;
41923;SDS011;27613;48.116;11.656;2023-09-08T09:14:22;3.45;;;2.40;;
41923;SDS011;27613;48.116;11.656;2023-09-08T09:16:48;3.00;;;2.30;;
41923;SDS011;27613;48.116;11.656;2023-09-08T09:19:18;3.42;;;2.65;;
41923;SDS011;27613;48.116;11.656;2023-09-08T09:21:50;2.67;;;2.13;;
41923;SDS011;27613;48.116;11.656;2023-09-08T09:27:07;2.80;;;2.35;;
41923;SDS011;27613;48.116;11.656;2023-09-08T09:29:34;3.75;;;2.63;;
41923;SDS011;27613;48.116;11.656;2023-09-08T09:32:09;3.83;;;2.53;;
41923;SDS011;27613;48.116;11.656;2023-09-08T09:34:35;3.17;;;2.42;;
41923;SDS011;27613;48.116;11.656;2023-09-08T09:37:00;2.50;;;2.08;;
41923;SDS011;27613;48.116;11.656;2023-09-08T09:39:26;3.42;;;2.65;;
41923;SDS011;27613;48.116;11.656;2023-09-08T09:41:55;2.72;;;2.08;;
41923;SDS011;27613;48.116;11.656;2023-09-08T09:44:22;2.55;;;2.03;;
41923;SDS011;27613;48.116;11.656;2023-09-08T09:46:50;3.08;;;2.25;;
41923;SDS011;27613;48.116;11.656;2023-09-08T09:49:17;6.25;;;2.67;;
41923;SDS011;27613;48.116;11.656;2023-09-08T09:51:43;3.40;;;2.20;;
41923;SDS011;27613;48.116;11.656;2023-09-08T09:54:10;3.58;;;2.63;;
41923;SDS011;27613;48.116;11.656;2023-09-08T09:56:37;4.32;;;2.78;;
41923;SDS011;27613;48.116;11.656;2023-09-08T09:59:04;3.63;;;2.45;;
41923;SDS011;27613;48.116;11.656;2023-09-08T10:01:32;3.70;;;2.33;;
41923;SDS011;27613;48.116;11.656;2023-09-08T10:03:58;3.85;;;2.42;;
41923;SDS011;27613;48.116;11.656;2023-09-08T10:06:25;2.75;;;2.10;;
41923;SDS011;27613;48.116;11.656;2023-09-08T10:08:51;3.65;;;2.30;;
41923;SDS011;27613;48.116;11.656;2023-09-08T10:11:20;3.17;;;2.40;;
41923;SDS011;27613;48.116;11.656;2023-09-08T10:13:49;4.95;;;2.55;;
41923;SDS011;27613;48.116;11.656;2023-09-08T10:16:16;2.50;;;2.15;;
41923;SDS011;27613;48.116;11.656;2023-09-08T10:18:44;3.45;;;2.63;;
41923;SDS011;27613;48.116;11.656;2023-09-08T10:21:12;3.10;;;2.17;;
41923;SDS011;27613;48.116;11.656;2023-09-08T10:23:43;2.75;;;2.05;;
41923;SDS011;27613;48.116;11.656;2023-09-08T10:26:16;3.95;;;2.40;;
41923;SDS011;27613;48.116;11.656;2023-09-08T10:28:42;4.10;;;2.55;;
41923;SDS011;27613;48.116;11.656;2023-09-08T10:31:09;2.50;;;1.90;;
41923;SDS011;27613;48.116;11.656;2023-09-08T10:33:35;2.72;;;2.05;;
41923;SDS011;27613;48.116;11.656;2023-09-08T10:36:02;2.85;;;2.22;;
41923;SDS011;27613;48.116;11.656;2023-09-08T10:38:33;2.42;;;2.10;;
41923;SDS011;27613;48.116;11.656;2023-09-08T10:43:42;2.70;;;2.10;;
41923;SDS011;27613;48.116;11.656;2023-09-08T10:46:30;2.70;;;2.10;;
41923;SDS011;27613;48.116;11.656;2023-09-08T10:49:03;3.10;;;2.17;;
41923;SDS011;27613;48.116;11.656;2023-09-08T10:51:31;3.13;;;2.25;;
41923;SDS011;27613;48.116;11.656;2023-09-08T10:53:58;2.88;;;2.45;;
41923;SDS011;27613;48.116;11.656;2023-09-08T10:56:27;2.95;;;2.20;;
41923;SDS011;27613;48.116;11.656;2023-09-08T10:59:11;2.67;;;2.17;;
41923;SDS011;27613;48.116;11.656;2023-09-08T11:01:37;2.28;;;2.00;;
41923;SDS011;27613;48.116;11.656;2023-09-08T11:04:04;3.50;;;2.38;;
41923;SDS011;27613;48.116;11.656;2023-09-08T11:06:33;3.20;;;2.30;;
41923;SDS011;27613;48.116;11.656;2023-09-08T11:09:05;3.90;;;2.10;;
41923;SDS011;27613;48.116;11.656;2023-09-08T11:11:34;2.80;;;2.30;;
41923;SDS011;27613;48.116;11.656;2023-09-08T11:14:01;2.47;;;2.28;;
41923;SDS011;27613;48.116;11.656;2023-09-08T11:16:30;2.60;;;2.20;;
41923;SDS011;27613;48.116;11.656;2023-09-08T11:18:58;2.47;;;2.13;;
41923;SDS011;27613;48.116;11.656;2023-09-08T11:21:23;2.75;;;2.20;;
41923;SDS011;27613;48.116;11.656;2023-09-08T11:23:49;3.17;;;2.40;;
41923;SDS011;27613;48.116;11.656;2023-09-08T11:26:15;2.70;;;2.22;;
41923;SDS011;27613;48.116;11.656;2023-09-08T11:28:41;4.50;;;2.85;;
41923;SDS011;27613;48.116;11.656;2023-09-08T11:31:07;3.30;;;2.10;;
41923;SDS011;27613;48.116;11.656;2023-09-08T11:33:34;3.50;;;2.75;;
41923;SDS011;27613;48.116;11.656;2023-09-08T11:36:10;2.85;;;2.33;;
41923;SDS011;27613;48.116;11.656;2023-09-08T11:38:38;3.00;;;2.30;;
41923;SDS011;27613;48.116;11.656;2023-09-08T11:41:03;2.70;;;1.98;;
41923;SDS011;27613;48.116;11.656;2023-09-08T11:43:29;2.50;;;2.13;;
41923;SDS011;27613;48.116;11.656;2023-09-08T11:45:58;2.38;;;2.05;;
41923;SDS011;27613;48.116;11.656;2023-09-08T11:48:24;3.15;;;2.53;;
41923;SDS011;27613;48.116;11.656;2023-09-08T11:50:52;3.85;;;2.40;;
41923;SDS011;27613;48.116;11.656;2023-09-08T11:53:19;2.92;;;2.35;;
41923;SDS011;27613;48.116;11.656;2023-09-08T11:55:45;3.35;;;2.65;;
41923;SDS011;27613;48.116;11.656;2023-09-08T11:58:11;3.50;;;2.53;;
41923;SDS011;27613;48.116;11.656;2023-09-08T12:00:37;4.60;;;2.60;;
41923;SDS011;27613;48.116;11.656;2023-09-08T12:03:10;3.38;;;2.42;;
41923;SDS011;27613;48.116;11.656;2023-09-08T12:05:37;3.83;;;2.50;;
41923;SDS011;27613;48.116;11.656;2023-09-08T12:08:03;2.55;;;2.15;;
41923;SDS011;27613;48.116;11.656;2023-09-08T12:10:42;2.85;;;2.35;;
41923;SDS011;27613;48.116;11.656;2023-09-08T12:13:08;2.80;;;2.50;;
41923;SDS011;27613;48.116;11.656;2023-09-08T12:15:37;4.30;;;2.58;;
41923;SDS011;27613;48.116;11.656;2023-09-08T12:18:07;3.28;;;2.67;;
41923;SDS011;27613;48.116;11.656;2023-09-08T12:20:35;3.25;;;2.42;;
41923;SDS011;27613;48.116;11.656;2023-09-08T12:23:02;3.28;;;2.50;;
41923;SDS011;27613;48.116;11.656;2023-09-08T12:25:29;3.80;;;2.40;;
41923;SDS011;27613;48.116;11.656;2023-09-08T12:27:56;3.65;;;2.65;;
41923;SDS011;27613;48.116;11.656;2023-09-08T12:30:23;3.78;;;2.55;;
41923;SDS011;27613;48.116;11.656;2023-09-08T12:32:57;9.13;;;2.55;;
41923;SDS011;27613;48.116;11.656;2023-09-08T12:35:24;3.33;;;2.42;;
41923;SDS011;27613;48.116;11.656;2023-09-08T12:38:01;3.15;;;2.30;;
41923;SDS011;27613;48.116;11.656;2023-09-08T12:40:28;4.28;;;2.55;;
41923;SDS011;27613;48.116;11.656;2023-09-08T12:42:55;3.88;;;2.45;;
41923;SDS011;27613;48.116;11.656;2023-09-08T12:45:22;3.20;;;2.38;;
41923;SDS011;27613;48.116;11.656;2023-09-08T12:47:50;3.65;;;2.55;;
41923;SDS011;27613;48.116;11.656;2023-09-08T12:50:16;3.03;;;2.28;;
41923;SDS011;27613;48.116;11.656;2023-09-08T12:52:43;4.30;;;2.95;;
41923;SDS011;27613;48.116;11.656;2023-09-08T12:55:09;3.22;;;2.58;;
41923;SDS011;27613;48.116;11.656;2023-09-08T12:57:35;2.47;;;2.10;;
41923;SDS011;27613;48.116;11.656;2023-09-08T13:00:02;3.63;;;2.55;;
41923;SDS011;27613;48.116;11.656;2023-09-08T13:02:28;6.38;;;2.72;;
41923;SDS011;27613;48.116;11.656;2023-09-08T13:04:54;3.90;;;2.58;;
41923;SDS011;27613;48.116;11.656;2023-09-08T13:07:20;2.85;;;2.40;;
41923;SDS011;27613;48.116;11.656;2023-09-08T13:09:46;2.22;;;1.92;;
41923;SDS011;27613;48.116;11.656;2023-09-08T13:12:11;2.72;;;2.42;;
41923;SDS011;27613;48.116;11.656;2023-09-08T13:14:38;4.45;;;2.60;;
41923;SDS011;27613;48.116;11.656;2023-09-08T13:17:04;4.32;;;2.50;;
41923;SDS011;27613;48.116;11.656;2023-09-08T13:19:31;2.65;;;2.20;;
41923;SDS011;27613;48.116;11.656;2023-09-08T13:21:56;2.90;;;2.60;;
41923;SDS011;27613;48.116;11.656;2023-09-08T13:24:22;2.42;;;2.15;;
41923;SDS011;27613;48.116;11.656;2023-09-08T13:26:48;2.70;;;2.45;;
41923;SDS011;27613;48.116;11.656;2023-09-08T13:29:13;2.53;;;2.13;;
41923;SDS011;27613;48.116;11.656;2023-09-08T13:31:40;3.30;;;2.38;;
41923;SDS011;27613;48.116;11.656;2023-09-08T13:34:05;2.97;;;2.17;;
41923;SDS011;27613;48.116;11.656;2023-09-08T13:36:31;4.03;;;2.55;;
41923;SDS011;27613;48.116;11.656;2023-09-08T13:38:57;2.20;;;1.80;;
41923;SDS011;27613;48.116;11.656;2023-09-08T13:41:23;3.28;;;2.40;;
41923;SDS011;27613;48.116;11.656;2023-09-08T13:43:49;3.05;;;2.20;;
41923;SDS011;27613;48.116;11.656;2023-09-08T13:46:14;3.28;;;2.30;;
41923;SDS011;27613;48.116;11.656;2023-09-08T13:48:40;3.75;;;2.35;;
41923;SDS011;27613;48.116;11.656;2023-09-08T13:51:05;3.53;;;2.38;;
41923;SDS011;27613;48.116;11.656;2023-09-08T13:53:31;3.72;;;2.33;;
41923;SDS011;27613;48.116;11.656;2023-09-08T13:55:57;3.22;;;2.30;;
41923;SDS011;27613;48.116;11.656;2023-09-08T13:58:22;2.20;;;1.90;;
41923;SDS011;27613;48.116;11.656;2023-09-08T14:00:48;2.50;;;2.00;;
41923;SDS011;27613;48.116;11.656;2023-09-08T14:03:14;4.43;;;3.40;;
41923;SDS011;27613;48.116;11.656;2023-09-08T14:05:40;3.83;;;2.92;;
41923;SDS011;27613;48.116;11.656;2023-09-08T14:08:05;2.45;;;2.10;;
41923;SDS011;27613;48.116;11.656;2023-09-08T14:10:31;2.30;;;1.98;;
41923;SDS011;27613;48.116;11.656;2023-09-08T14:12:56;3.38;;;2.33;;
41923;SDS011;27613;48.116;11.656;2023-09-08T14:15:22;3.65;;;2.40;;
41923;SDS011;27613;48.116;11.656;2023-09-08T14:17:47;3.30;;;2.05;;
41923;SDS011;27613;48.116;11.656;2023-09-08T14:20:13;2.78;;;2.38;;
41923;SDS011;27613;48.116;11.656;2023-09-08T14:22:39;2.88;;;2.25;;
41923;SDS011;27613;48.116;11.656;2023-09-08T14:25:04;5.60;;;2.63;;
41923;SDS011;27613;48.116;11.656;2023-09-08T14:27:30;3.97;;;2.45;;
41923;SDS011;27613;48.116;11.656;2023-09-08T14:29:56;2.80;;;2.20;;
41923;SDS011;27613;48.116;11.656;2023-09-08T14:32:21;2.35;;;1.90;;
41923;SDS011;27613;48.116;11.656;2023-09-08T14:34:48;2.28;;;1.95;;
41923;SDS011;27613;48.116;11.656;2023-09-08T14:37:13;2.58;;;2.00;;
41923;SDS011;27613;48.116;11.656;2023-09-08T14:39:40;2.90;;;2.30;;